sensor_id;sensor_type;location;lat;lon;timestamp;P1;durP1;ratioP1;P2;durP2;ratioP2
6209;SDS011;3138;52.550;13.148;2023-02-01T00:01:04;48.37;;;5.57;;
6209;SDS011;3138;52.550;13.148;2023-02-01T00:03:32;54.50;;;7.63;;
6209;SDS011;3138;52.550;13.148;2023-02-01T00:05:59;43.03;;;5.00;;
6209;SDS011;3138;52.550;13.148;2023-02-01T00:08:26;32.93;;;4.93;;
6209;SDS011;3138;52.550;13.148;2023-02-01T00:11:00;37.73;;;4.73;;
6209;SDS011;3138;52.550;13.148;2023-02-01T00:13:28;28.30;;;4.80;;
6209;SDS011;3138;52.550;13.148;2023-02-01T00:16:03;27.63;;;5.13;;
6209;SDS011;3138;52.550;13.148;2023-02-01T00:18:30;32.13;;;5.13;;
6209;SDS011;3138;52.550;13.148;2023-02-01T00:20:57;28.80;;;4.47;;
6209;SDS011;3138;52.550;13.148;2023-02-01T00:23:24;54.43;;;4.93;;
6209;SDS011;3138;52.550;13.148;2023-02-01T00:25:51;44.63;;;4.97;;
6209;SDS011;3138;52.550;13.148;2023-02-01T00:28:18;53.90;;;5.90;;
6209;SDS011;3138;52.550;13.148;2023-02-01T00:30:45;39.20;;;4.57;;
6209;SDS011;3138;52.550;13.148;2023-02-01T00:33:13;34.77;;;4.80;;
6209;SDS011;3138;52.550;13.148;2023-02-01T00:35:40;27.63;;;4.00;;
6209;SDS011;3138;52.550;13.148;2023-02-01T00:38:09;17.00;;;4.33;;
6209;SDS011;3138;52.550;13.148;2023-02-01T00:40:36;31.97;;;4.23;;
6209;SDS011;3138;52.550;13.148;2023-02-01T00:43:03;29.87;;;4.83;;
6209;SDS011;3138;52.550;13.148;2023-02-01T00:45:30;31.77;;;5.43;;
6209;SDS011;3138;52.550;13.148;2023-02-01T00:47:56;27.03;;;4.30;;
6209;SDS011;3138;52.550;13.148;2023-02-01T00:50:25;31.93;;;4.70;;
6209;SDS011;3138;52.550;13.148;2023-02-01T00:52:53;33.57;;;4.50;;
6209;SDS011;3138;52.550;13.148;2023-02-01T00:55:19;41.00;;;4.37;;
6209;SDS011;3138;52.550;13.148;2023-02-01T00:57:46;48.40;;;4.40;;
6209;SDS011;3138;52.550;13.148;2023-02-01T01:00:13;22.10;;;4.00;;
6209;SDS011;3138;52.550;13.148;2023-02-01T01:02:41;24.10;;;5.20;;
6209;SDS011;3138;52.550;13.148;2023-02-01T01:05:08;35.50;;;4.17;;
6209;SDS011;3138;52.550;13.148;2023-02-01T01:07:36;31.97;;;5.10;;
6209;SDS011;3138;52.550;13.148;2023-02-01T01:10:03;21.03;;;4.60;;
6209;SDS011;3138;52.550;13.148;2023-02-01T01:12:31;19.40;;;4.43;;
6209;SDS011;3138;52.550;13.148;2023-02-01T01:14:58;38.47;;;3.53;;
6209;SDS011;3138;52.550;13.148;2023-02-01T01:17:24;23.47;;;4.10;;
6209;SDS011;3138;52.550;13.148;2023-02-01T01:19:51;24.37;;;4.00;;
6209;SDS011;3138;52.550;13.148;2023-02-01T01:22:18;52.33;;;5.73;;
6209;SDS011;3138;52.550;13.148;2023-02-01T01:24:46;34.10;;;4.17;;
6209;SDS011;3138;52.550;13.148;2023-02-01T01:27:13;24.20;;;4.90;;
6209;SDS011;3138;52.550;13.148;2023-02-01T01:29:40;30.73;;;4.77;;
6209;SDS011;3138;52.550;13.148;2023-02-01T01:32:07;43.93;;;5.23;;
6209;SDS011;3138;52.550;13.148;2023-02-01T01:34:34;44.53;;;4.80;;
6209;SDS011;3138;52.550;13.148;2023-02-01T01:37:00;22.03;;;3.70;;
6209;SDS011;3138;52.550;13.148;2023-02-01T01:39:30;19.70;;;4.47;;
6209;SDS011;3138;52.550;13.148;2023-02-01T01:42:01;38.07;;;6.13;;
6209;SDS011;3138;52.550;13.148;2023-02-01T01:47:22;36.23;;;5.23;;
6209;SDS011;3138;52.550;13.148;2023-02-01T01:49:49;37.33;;;5.70;;
6209;SDS011;3138;52.550;13.148;2023-02-01T01:52:16;32.23;;;4.50;;
6209;SDS011;3138;52.550;13.148;2023-02-01T01:54:45;36.43;;;4.27;;
6209;SDS011;3138;52.550;13.148;2023-02-01T01:57:16;40.90;;;7.00;;
6209;SDS011;3138;52.550;13.148;2023-02-01T01:59:46;31.23;;;4.30;;
6209;SDS011;3138;52.550;13.148;2023-02-01T02:02:19;34.90;;;5.47;;
6209;SDS011;3138;52.550;13.148;2023-02-01T02:04:46;31.90;;;4.63;;
6209;SDS011;3138;52.550;13.148;2023-02-01T02:07:14;21.43;;;3.90;;
6209;SDS011;3138;52.550;13.148;2023-02-01T02:09:46;35.37;;;6.20;;
6209;SDS011;3138;52.550;13.148;2023-02-01T02:12:12;42.47;;;5.40;;
6209;SDS011;3138;52.550;13.148;2023-02-01T02:14:41;40.77;;;4.23;;
6209;SDS011;3138;52.550;13.148;2023-02-01T02:17:12;24.97;;;6.83;;
6209;SDS011;3138;52.550;13.148;2023-02-01T02:20:02;24.50;;;4.70;;
6209;SDS011;3138;52.550;13.148;2023-02-01T02:22:54;30.87;;;5.50;;
6209;SDS011;3138;52.550;13.148;2023-02-01T02:25:44;17.43;;;4.10;;
6209;SDS011;3138;52.550;13.148;2023-02-01T02:28:36;38.60;;;5.37;;
6209;SDS011;3138;52.550;13.148;2023-02-01T02:31:54;33.13;;;5.10;;
6209;SDS011;3138;52.550;13.148;2023-02-01T02:34:33;27.80;;;4.37;;
6209;SDS011;3138;52.550;13.148;2023-02-01T02:37:04;25.80;;;4.37;;
6209;SDS011;3138;52.550;13.148;2023-02-01T02:39:41;33.10;;;4.47;;
6209;SDS011;3138;52.550;13.148;2023-02-01T02:42:17;43.83;;;6.10;;
6209;SDS011;3138;52.550;13.148;2023-02-01T02:45:12;45.73;;;5.03;;
6209;SDS011;3138;52.550;13.148;2023-02-01T02:48:03;50.47;;;5.03;;
6209;SDS011;3138;52.550;13.148;2023-02-01T02:50:40;37.23;;;5.17;;
6209;SDS011;3138;52.550;13.148;2023-02-01T02:53:30;43.30;;;5.20;;
6209;SDS011;3138;52.550;13.148;2023-02-01T02:56:20;25.43;;;5.07;;
6209;SDS011;3138;52.550;13.148;2023-02-01T02:59:06;33.97;;;4.70;;
6209;SDS011;3138;52.550;13.148;2023-02-01T03:01:52;37.03;;;5.30;;
6209;SDS011;3138;52.550;13.148;2023-02-01T03:04:37;36.27;;;5.33;;
6209;SDS011;3138;52.550;13.148;2023-02-01T03:10:16;35.07;;;4.53;;
6209;SDS011;3138;52.550;13.148;2023-02-01T03:12:50;49.60;;;5.43;;
6209;SDS011;3138;52.550;13.148;2023-02-01T03:15:21;27.77;;;7.63;;
6209;SDS011;3138;52.550;13.148;2023-02-01T03:17:51;21.53;;;5.23;;
6209;SDS011;3138;52.550;13.148;2023-02-01T03:20:22;44.73;;;5.33;;
6209;SDS011;3138;52.550;13.148;2023-02-01T03:22:49;35.63;;;4.80;;
6209;SDS011;3138;52.550;13.148;2023-02-01T03:25:21;35.67;;;5.20;;
6209;SDS011;3138;52.550;13.148;2023-02-01T03:27:52;31.93;;;3.90;;
6209;SDS011;3138;52.550;13.148;2023-02-01T03:30:24;31.60;;;5.00;;
6209;SDS011;3138;52.550;13.148;2023-02-01T03:32:54;36.07;;;4.90;;
6209;SDS011;3138;52.550;13.148;2023-02-01T03:35:28;31.53;;;4.87;;
6209;SDS011;3138;52.550;13.148;2023-02-01T03:38:01;59.80;;;5.77;;
6209;SDS011;3138;52.550;13.148;2023-02-01T03:40:34;42.93;;;5.97;;
6209;SDS011;3138;52.550;13.148;2023-02-01T03:43:02;42.93;;;4.63;;
6209;SDS011;3138;52.550;13.148;2023-02-01T03:45:34;55.03;;;6.47;;
6209;SDS011;3138;52.550;13.148;2023-02-01T03:48:05;40.10;;;5.13;;
6209;SDS011;3138;52.550;13.148;2023-02-01T03:50:34;59.13;;;5.53;;
6209;SDS011;3138;52.550;13.148;2023-02-01T03:53:04;49.97;;;7.30;;
6209;SDS011;3138;52.550;13.148;2023-02-01T03:55:36;23.30;;;4.00;;
6209;SDS011;3138;52.550;13.148;2023-02-01T03:58:06;35.67;;;4.07;;
6209;SDS011;3138;52.550;13.148;2023-02-01T04:00:36;48.63;;;5.53;;
6209;SDS011;3138;52.550;13.148;2023-02-01T04:03:04;39.77;;;5.40;;
6209;SDS011;3138;52.550;13.148;2023-02-01T04:05:32;22.50;;;5.47;;
6209;SDS011;3138;52.550;13.148;2023-02-01T04:07:59;30.33;;;4.90;;
6209;SDS011;3138;52.550;13.148;2023-02-01T04:10:26;39.90;;;6.43;;
6209;SDS011;3138;52.550;13.148;2023-02-01T04:12:54;41.40;;;5.97;;
6209;SDS011;3138;52.550;13.148;2023-02-01T04:15:21;46.20;;;6.70;;
6209;SDS011;3138;52.550;13.148;2023-02-01T04:17:48;28.43;;;4.90;;
6209;SDS011;3138;52.550;13.148;2023-02-01T04:20:15;47.80;;;7.23;;
6209;SDS011;3138;52.550;13.148;2023-02-01T04:22:43;45.83;;;5.90;;
6209;SDS011;3138;52.550;13.148;2023-02-01T04:25:10;33.30;;;4.93;;
6209;SDS011;3138;52.550;13.148;2023-02-01T04:27:37;39.97;;;6.20;;
6209;SDS011;3138;52.550;13.148;2023-02-01T04:30:06;37.30;;;4.37;;
6209;SDS011;3138;52.550;13.148;2023-02-01T04:32:34;42.17;;;6.63;;
6209;SDS011;3138;52.550;13.148;2023-02-01T04:35:01;34.77;;;5.03;;
6209;SDS011;3138;52.550;13.148;2023-02-01T04:37:28;45.10;;;4.63;;
6209;SDS011;3138;52.550;13.148;2023-02-01T04:39:57;29.40;;;4.77;;
6209;SDS011;3138;52.550;13.148;2023-02-01T04:42:23;43.20;;;6.23;;
6209;SDS011;3138;52.550;13.148;2023-02-01T04:44:50;32.07;;;5.83;;
6209;SDS011;3138;52.550;13.148;2023-02-01T04:47:18;37.00;;;6.67;;
6209;SDS011;3138;52.550;13.148;2023-02-01T04:49:45;39.80;;;5.83;;
6209;SDS011;3138;52.550;13.148;2023-02-01T04:52:12;33.93;;;4.90;;
6209;SDS011;3138;52.550;13.148;2023-02-01T04:54:39;39.43;;;6.33;;
6209;SDS011;3138;52.550;13.148;2023-02-01T04:57:06;31.03;;;5.20;;
6209;SDS011;3138;52.550;13.148;2023-02-01T04:59:32;51.03;;;5.33;;
6209;SDS011;3138;52.550;13.148;2023-02-01T05:02:00;38.47;;;5.10;;
6209;SDS011;3138;52.550;13.148;2023-02-01T05:04:28;46.70;;;5.03;;
6209;SDS011;3138;52.550;13.148;2023-02-01T05:06:55;37.33;;;5.17;;
6209;SDS011;3138;52.550;13.148;2023-02-01T05:09:22;31.57;;;4.80;;
6209;SDS011;3138;52.550;13.148;2023-02-01T05:11:48;53.63;;;6.10;;
6209;SDS011;3138;52.550;13.148;2023-02-01T05:14:33;35.90;;;6.70;;
6209;SDS011;3138;52.550;13.148;2023-02-01T05:16:59;40.50;;;6.30;;
6209;SDS011;3138;52.550;13.148;2023-02-01T05:19:27;65.33;;;5.37;;
6209;SDS011;3138;52.550;13.148;2023-02-01T05:21:54;51.93;;;10.30;;
6209;SDS011;3138;52.550;13.148;2023-02-01T05:24:21;29.03;;;4.80;;
6209;SDS011;3138;52.550;13.148;2023-02-01T05:26:48;47.17;;;6.40;;
6209;SDS011;3138;52.550;13.148;2023-02-01T05:29:15;36.23;;;4.47;;
6209;SDS011;3138;52.550;13.148;2023-02-01T05:31:44;41.10;;;5.70;;
6209;SDS011;3138;52.550;13.148;2023-02-01T05:34:11;49.87;;;6.40;;
6209;SDS011;3138;52.550;13.148;2023-02-01T05:36:39;49.83;;;7.53;;
6209;SDS011;3138;52.550;13.148;2023-02-01T05:39:06;38.70;;;5.93;;
6209;SDS011;3138;52.550;13.148;2023-02-01T05:41:33;33.43;;;5.47;;
6209;SDS011;3138;52.550;13.148;2023-02-01T05:44:00;36.77;;;6.37;;
6209;SDS011;3138;52.550;13.148;2023-02-01T05:46:27;34.03;;;6.33;;
6209;SDS011;3138;52.550;13.148;2023-02-01T05:48:54;43.80;;;5.20;;
6209;SDS011;3138;52.550;13.148;2023-02-01T05:51:21;31.47;;;5.97;;
6209;SDS011;3138;52.550;13.148;2023-02-01T05:53:49;38.47;;;6.00;;
6209;SDS011;3138;52.550;13.148;2023-02-01T05:56:16;39.90;;;6.17;;
6209;SDS011;3138;52.550;13.148;2023-02-01T05:58:43;37.70;;;5.13;;
6209;SDS011;3138;52.550;13.148;2023-02-01T06:01:10;41.23;;;6.33;;
6209;SDS011;3138;52.550;13.148;2023-02-01T06:03:36;36.93;;;4.70;;
6209;SDS011;3138;52.550;13.148;2023-02-01T06:06:03;50.83;;;6.07;;
6209;SDS011;3138;52.550;13.148;2023-02-01T06:08:31;48.57;;;5.60;;
6209;SDS011;3138;52.550;13.148;2023-02-01T06:10:59;27.23;;;5.53;;
6209;SDS011;3138;52.550;13.148;2023-02-01T06:13:27;32.60;;;5.03;;
6209;SDS011;3138;52.550;13.148;2023-02-01T06:15:54;28.60;;;5.77;;
6209;SDS011;3138;52.550;13.148;2023-02-01T06:18:22;33.00;;;5.50;;
6209;SDS011;3138;52.550;13.148;2023-02-01T06:20:51;44.83;;;5.70;;
6209;SDS011;3138;52.550;13.148;2023-02-01T06:23:19;27.83;;;4.37;;
6209;SDS011;3138;52.550;13.148;2023-02-01T06:25:49;42.60;;;6.07;;
6209;SDS011;3138;52.550;13.148;2023-02-01T06:28:18;37.07;;;5.80;;
6209;SDS011;3138;52.550;13.148;2023-02-01T06:30:45;34.87;;;6.60;;
6209;SDS011;3138;52.550;13.148;2023-02-01T06:33:12;59.00;;;7.23;;
6209;SDS011;3138;52.550;13.148;2023-02-01T06:35:40;31.20;;;5.03;;
6209;SDS011;3138;52.550;13.148;2023-02-01T06:38:08;30.00;;;5.03;;
6209;SDS011;3138;52.550;13.148;2023-02-01T06:40:35;39.20;;;4.63;;
6209;SDS011;3138;52.550;13.148;2023-02-01T06:43:02;44.37;;;4.90;;
6209;SDS011;3138;52.550;13.148;2023-02-01T06:45:31;36.97;;;6.83;;
6209;SDS011;3138;52.550;13.148;2023-02-01T06:47:58;30.50;;;5.03;;
6209;SDS011;3138;52.550;13.148;2023-02-01T06:50:26;35.13;;;5.93;;
6209;SDS011;3138;52.550;13.148;2023-02-01T06:52:52;37.47;;;5.23;;
6209;SDS011;3138;52.550;13.148;2023-02-01T06:55:19;25.57;;;5.63;;
6209;SDS011;3138;52.550;13.148;2023-02-01T06:57:46;39.27;;;4.90;;
6209;SDS011;3138;52.550;13.148;2023-02-01T07:00:13;33.63;;;5.17;;
6209;SDS011;3138;52.550;13.148;2023-02-01T07:02:42;36.03;;;4.90;;
6209;SDS011;3138;52.550;13.148;2023-02-01T07:05:09;38.07;;;5.80;;
6209;SDS011;3138;52.550;13.148;2023-02-01T07:07:35;31.33;;;5.40;;
6209;SDS011;3138;52.550;13.148;2023-02-01T07:10:02;28.00;;;4.00;;
6209;SDS011;3138;52.550;13.148;2023-02-01T07:12:30;27.10;;;4.27;;
6209;SDS011;3138;52.550;13.148;2023-02-01T07:14:56;43.20;;;8.00;;
6209;SDS011;3138;52.550;13.148;2023-02-01T07:17:23;33.50;;;6.37;;
6209;SDS011;3138;52.550;13.148;2023-02-01T07:19:51;28.33;;;5.07;;
6209;SDS011;3138;52.550;13.148;2023-02-01T07:22:18;16.63;;;4.60;;
6209;SDS011;3138;52.550;13.148;2023-02-01T07:24:45;24.60;;;5.43;;
6209;SDS011;3138;52.550;13.148;2023-02-01T07:27:12;37.83;;;6.97;;
6209;SDS011;3138;52.550;13.148;2023-02-01T07:29:39;43.10;;;7.30;;
6209;SDS011;3138;52.550;13.148;2023-02-01T07:32:06;18.83;;;4.30;;
6209;SDS011;3138;52.550;13.148;2023-02-01T07:34:32;53.23;;;6.63;;
6209;SDS011;3138;52.550;13.148;2023-02-01T07:37:02;30.20;;;5.33;;
6209;SDS011;3138;52.550;13.148;2023-02-01T07:39:32;28.23;;;3.60;;
6209;SDS011;3138;52.550;13.148;2023-02-01T07:42:02;33.43;;;6.23;;
6209;SDS011;3138;52.550;13.148;2023-02-01T07:44:29;30.33;;;4.60;;
6209;SDS011;3138;52.550;13.148;2023-02-01T07:46:56;35.57;;;5.60;;
6209;SDS011;3138;52.550;13.148;2023-02-01T07:49:23;27.27;;;5.47;;
6209;SDS011;3138;52.550;13.148;2023-02-01T07:51:50;20.77;;;4.67;;
6209;SDS011;3138;52.550;13.148;2023-02-01T07:54:18;21.03;;;5.20;;
6209;SDS011;3138;52.550;13.148;2023-02-01T07:56:45;32.97;;;7.10;;
6209;SDS011;3138;52.550;13.148;2023-02-01T07:59:12;20.50;;;5.70;;
6209;SDS011;3138;52.550;13.148;2023-02-01T08:01:40;22.20;;;6.30;;
6209;SDS011;3138;52.550;13.148;2023-02-01T08:04:06;26.60;;;5.17;;
6209;SDS011;3138;52.550;13.148;2023-02-01T08:06:35;29.10;;;5.60;;
6209;SDS011;3138;52.550;13.148;2023-02-01T08:09:02;20.13;;;4.30;;
6209;SDS011;3138;52.550;13.148;2023-02-01T08:11:31;21.60;;;4.30;;
6209;SDS011;3138;52.550;13.148;2023-02-01T08:13:58;22.57;;;4.80;;
6209;SDS011;3138;52.550;13.148;2023-02-01T08:16:25;8.40;;;3.23;;
6209;SDS011;3138;52.550;13.148;2023-02-01T08:18:52;14.40;;;5.10;;
6209;SDS011;3138;52.550;13.148;2023-02-01T08:21:21;20.07;;;4.17;;
6209;SDS011;3138;52.550;13.148;2023-02-01T08:23:49;57.53;;;25.00;;
6209;SDS011;3138;52.550;13.148;2023-02-01T08:26:16;26.00;;;6.60;;
6209;SDS011;3138;52.550;13.148;2023-02-01T08:28:47;23.47;;;7.43;;
6209;SDS011;3138;52.550;13.148;2023-02-01T08:31:15;27.93;;;5.70;;
6209;SDS011;3138;52.550;13.148;2023-02-01T08:33:47;16.50;;;5.13;;
6209;SDS011;3138;52.550;13.148;2023-02-01T08:36:15;16.83;;;5.40;;
6209;SDS011;3138;52.550;13.148;2023-02-01T08:38:43;29.17;;;7.73;;
6209;SDS011;3138;52.550;13.148;2023-02-01T08:41:10;29.63;;;6.30;;
6209;SDS011;3138;52.550;13.148;2023-02-01T08:43:38;14.23;;;5.30;;
6209;SDS011;3138;52.550;13.148;2023-02-01T08:46:07;22.80;;;5.53;;
6209;SDS011;3138;52.550;13.148;2023-02-01T08:48:35;13.43;;;4.30;;
6209;SDS011;3138;52.550;13.148;2023-02-01T08:51:02;20.33;;;3.60;;
6209;SDS011;3138;52.550;13.148;2023-02-01T08:53:29;15.80;;;3.30;;
6209;SDS011;3138;52.550;13.148;2023-02-01T08:55:56;11.93;;;3.50;;
6209;SDS011;3138;52.550;13.148;2023-02-01T08:58:23;16.60;;;3.17;;
6209;SDS011;3138;52.550;13.148;2023-02-01T09:00:50;11.43;;;3.40;;
6209;SDS011;3138;52.550;13.148;2023-02-01T09:03:18;4.13;;;2.10;;
6209;SDS011;3138;52.550;13.148;2023-02-01T09:05:45;8.20;;;1.70;;
6209;SDS011;3138;52.550;13.148;2023-02-01T09:08:12;3.47;;;1.77;;
6209;SDS011;3138;52.550;13.148;2023-02-01T09:10:40;3.10;;;1.17;;
6209;SDS011;3138;52.550;13.148;2023-02-01T09:13:08;9.00;;;1.90;;
6209;SDS011;3138;52.550;13.148;2023-02-01T09:15:36;6.00;;;1.37;;
6209;SDS011;3138;52.550;13.148;2023-02-01T09:18:03;10.53;;;2.30;;
6209;SDS011;3138;52.550;13.148;2023-02-01T09:20:31;12.03;;;3.73;;
6209;SDS011;3138;52.550;13.148;2023-02-01T09:22:58;13.60;;;2.80;;
6209;SDS011;3138;52.550;13.148;2023-02-01T09:25:26;13.20;;;5.63;;
6209;SDS011;3138;52.550;13.148;2023-02-01T09:27:53;1.20;;;1.10;;
6209;SDS011;3138;52.550;13.148;2023-02-01T09:30:20;3.93;;;1.60;;
6209;SDS011;3138;52.550;13.148;2023-02-01T09:32:47;4.83;;;1.50;;
6209;SDS011;3138;52.550;13.148;2023-02-01T09:35:14;2.30;;;1.27;;
6209;SDS011;3138;52.550;13.148;2023-02-01T09:37:42;3.63;;;2.23;;
6209;SDS011;3138;52.550;13.148;2023-02-01T09:40:10;4.20;;;1.90;;
6209;SDS011;3138;52.550;13.148;2023-02-01T09:42:46;5.40;;;1.43;;
6209;SDS011;3138;52.550;13.148;2023-02-01T09:45:24;7.27;;;1.83;;
6209;SDS011;3138;52.550;13.148;2023-02-01T09:47:59;13.37;;;2.40;;
6209;SDS011;3138;52.550;13.148;2023-02-01T09:50:33;2.70;;;1.80;;
6209;SDS011;3138;52.550;13.148;2023-02-01T09:53:04;4.30;;;1.20;;
6209;SDS011;3138;52.550;13.148;2023-02-01T09:55:38;20.77;;;8.43;;
6209;SDS011;3138;52.550;13.148;2023-02-01T09:58:07;7.23;;;1.73;;
6209;SDS011;3138;52.550;13.148;2023-02-01T10:00:39;6.73;;;2.17;;
6209;SDS011;3138;52.550;13.148;2023-02-01T10:03:09;9.03;;;2.27;;
6209;SDS011;3138;52.550;13.148;2023-02-01T10:05:49;14.07;;;4.67;;
6209;SDS011;3138;52.550;13.148;2023-02-01T10:08:33;9.13;;;3.97;;
6209;SDS011;3138;52.550;13.148;2023-02-01T10:11:14;13.17;;;3.53;;
6209;SDS011;3138;52.550;13.148;2023-02-01T10:13:53;7.43;;;2.13;;
6209;SDS011;3138;52.550;13.148;2023-02-01T10:16:32;6.17;;;2.13;;
6209;SDS011;3138;52.550;13.148;2023-02-01T10:22:04;2.40;;;1.20;;
6209;SDS011;3138;52.550;13.148;2023-02-01T10:24:36;15.90;;;2.23;;
6209;SDS011;3138;52.550;13.148;2023-02-01T10:27:10;12.90;;;3.20;;
6209;SDS011;3138;52.550;13.148;2023-02-01T10:29:41;11.13;;;4.70;;
6209;SDS011;3138;52.550;13.148;2023-02-01T10:32:11;8.33;;;2.30;;
6209;SDS011;3138;52.550;13.148;2023-02-01T10:34:40;5.43;;;1.93;;
6209;SDS011;3138;52.550;13.148;2023-02-01T10:37:12;9.30;;;2.50;;
6209;SDS011;3138;52.550;13.148;2023-02-01T10:39:54;17.83;;;7.77;;
6209;SDS011;3138;52.550;13.148;2023-02-01T10:42:24;12.93;;;2.60;;
6209;SDS011;3138;52.550;13.148;2023-02-01T10:44:52;18.93;;;6.00;;
6209;SDS011;3138;52.550;13.148;2023-02-01T10:47:22;14.27;;;4.83;;
6209;SDS011;3138;52.550;13.148;2023-02-01T10:49:50;24.50;;;2.20;;
6209;SDS011;3138;52.550;13.148;2023-02-01T10:52:27;11.53;;;4.80;;
6209;SDS011;3138;52.550;13.148;2023-02-01T10:57:57;13.63;;;3.67;;
6209;SDS011;3138;52.550;13.148;2023-02-01T11:00:25;26.47;;;4.00;;
6209;SDS011;3138;52.550;13.148;2023-02-01T11:02:53;11.33;;;3.87;;
6209;SDS011;3138;52.550;13.148;2023-02-01T11:05:21;15.70;;;3.53;;
6209;SDS011;3138;52.550;13.148;2023-02-01T11:07:49;16.60;;;3.57;;
6209;SDS011;3138;52.550;13.148;2023-02-01T11:10:37;11.40;;;3.37;;
6209;SDS011;3138;52.550;13.148;2023-02-01T11:13:11;12.37;;;5.13;;
6209;SDS011;3138;52.550;13.148;2023-02-01T11:15:43;16.93;;;3.43;;
6209;SDS011;3138;52.550;13.148;2023-02-01T11:18:16;19.40;;;4.70;;
6209;SDS011;3138;52.550;13.148;2023-02-01T11:20:45;18.57;;;3.87;;
6209;SDS011;3138;52.550;13.148;2023-02-01T11:23:14;26.50;;;4.37;;
6209;SDS011;3138;52.550;13.148;2023-02-01T11:25:50;21.83;;;3.23;;
6209;SDS011;3138;52.550;13.148;2023-02-01T11:28:20;21.10;;;3.63;;
6209;SDS011;3138;52.550;13.148;2023-02-01T11:30:53;26.17;;;3.83;;
6209;SDS011;3138;52.550;13.148;2023-02-01T11:33:23;10.53;;;2.23;;
6209;SDS011;3138;52.550;13.148;2023-02-01T11:35:54;12.10;;;5.10;;
6209;SDS011;3138;52.550;13.148;2023-02-01T11:38:26;17.57;;;2.73;;
6209;SDS011;3138;52.550;13.148;2023-02-01T11:40:56;20.50;;;3.50;;
6209;SDS011;3138;52.550;13.148;2023-02-01T11:43:38;11.73;;;2.70;;
6209;SDS011;3138;52.550;13.148;2023-02-01T11:46:18;20.97;;;3.87;;
6209;SDS011;3138;52.550;13.148;2023-02-01T11:48:50;19.70;;;3.00;;
6209;SDS011;3138;52.550;13.148;2023-02-01T11:51:21;18.37;;;2.80;;
6209;SDS011;3138;52.550;13.148;2023-02-01T11:54:15;8.80;;;2.27;;
6209;SDS011;3138;52.550;13.148;2023-02-01T11:56:56;11.20;;;2.43;;
6209;SDS011;3138;52.550;13.148;2023-02-01T11:59:45;7.90;;;1.97;;
6209;SDS011;3138;52.550;13.148;2023-02-01T12:02:30;8.63;;;2.80;;
6209;SDS011;3138;52.550;13.148;2023-02-01T12:05:20;8.40;;;1.97;;
6209;SDS011;3138;52.550;13.148;2023-02-01T12:07:58;25.10;;;3.43;;
6209;SDS011;3138;52.550;13.148;2023-02-01T12:10:39;12.27;;;2.63;;
6209;SDS011;3138;52.550;13.148;2023-02-01T12:13:21;23.73;;;2.77;;
6209;SDS011;3138;52.550;13.148;2023-02-01T12:16:01;6.90;;;1.90;;
6209;SDS011;3138;52.550;13.148;2023-02-01T12:18:51;16.27;;;2.53;;
6209;SDS011;3138;52.550;13.148;2023-02-01T12:21:36;11.17;;;3.17;;
6209;SDS011;3138;52.550;13.148;2023-02-01T12:27:05;20.30;;;3.17;;
6209;SDS011;3138;52.550;13.148;2023-02-01T12:29:51;21.33;;;2.83;;
6209;SDS011;3138;52.550;13.148;2023-02-01T12:32:37;10.20;;;3.20;;
6209;SDS011;3138;52.550;13.148;2023-02-01T12:35:27;9.83;;;2.67;;
6209;SDS011;3138;52.550;13.148;2023-02-01T12:38:21;19.67;;;3.90;;
6209;SDS011;3138;52.550;13.148;2023-02-01T12:44:24;14.70;;;3.70;;
6209;SDS011;3138;52.550;13.148;2023-02-01T12:47:01;16.73;;;3.07;;
6209;SDS011;3138;52.550;13.148;2023-02-01T12:49:35;33.20;;;2.93;;
6209;SDS011;3138;52.550;13.148;2023-02-01T12:52:13;11.73;;;3.43;;
6209;SDS011;3138;52.550;13.148;2023-02-01T12:54:43;14.77;;;4.30;;
6209;SDS011;3138;52.550;13.148;2023-02-01T12:57:15;15.13;;;3.30;;
6209;SDS011;3138;52.550;13.148;2023-02-01T12:59:48;22.30;;;4.03;;
6209;SDS011;3138;52.550;13.148;2023-02-01T13:02:27;10.47;;;2.23;;
6209;SDS011;3138;52.550;13.148;2023-02-01T13:05:04;17.57;;;3.47;;
6209;SDS011;3138;52.550;13.148;2023-02-01T13:07:41;22.47;;;2.83;;
6209;SDS011;3138;52.550;13.148;2023-02-01T13:10:15;16.97;;;3.90;;
6209;SDS011;3138;52.550;13.148;2023-02-01T13:12:48;9.77;;;2.70;;
6209;SDS011;3138;52.550;13.148;2023-02-01T13:15:20;19.03;;;3.20;;
6209;SDS011;3138;52.550;13.148;2023-02-01T13:17:53;13.40;;;2.50;;
6209;SDS011;3138;52.550;13.148;2023-02-01T13:20:25;19.83;;;2.73;;
6209;SDS011;3138;52.550;13.148;2023-02-01T13:22:58;25.20;;;3.80;;
6209;SDS011;3138;52.550;13.148;2023-02-01T13:25:29;27.33;;;5.33;;
6209;SDS011;3138;52.550;13.148;2023-02-01T13:28:02;16.43;;;3.53;;
6209;SDS011;3138;52.550;13.148;2023-02-01T13:30:36;12.17;;;2.60;;
6209;SDS011;3138;52.550;13.148;2023-02-01T13:36:15;17.40;;;3.03;;
6209;SDS011;3138;52.550;13.148;2023-02-01T13:42:00;22.57;;;4.00;;
6209;SDS011;3138;52.550;13.148;2023-02-01T13:44:28;15.23;;;4.03;;
6209;SDS011;3138;52.550;13.148;2023-02-01T13:46:59;12.13;;;3.63;;
6209;SDS011;3138;52.550;13.148;2023-02-01T13:49:30;30.10;;;3.43;;
6209;SDS011;3138;52.550;13.148;2023-02-01T13:52:03;17.30;;;2.63;;
6209;SDS011;3138;52.550;13.148;2023-02-01T13:54:31;24.97;;;3.30;;
6209;SDS011;3138;52.550;13.148;2023-02-01T13:57:00;21.27;;;3.20;;
6209;SDS011;3138;52.550;13.148;2023-02-01T13:59:36;13.80;;;3.30;;
6209;SDS011;3138;52.550;13.148;2023-02-01T14:08:37;19.73;;;3.40;;
6209;SDS011;3138;52.550;13.148;2023-02-01T14:11:06;18.53;;;4.23;;
6209;SDS011;3138;52.550;13.148;2023-02-01T14:13:53;27.50;;;3.60;;
6209;SDS011;3138;52.550;13.148;2023-02-01T14:16:20;30.23;;;5.23;;
6209;SDS011;3138;52.550;13.148;2023-02-01T14:18:58;25.20;;;5.03;;
6209;SDS011;3138;52.550;13.148;2023-02-01T14:21:27;31.70;;;5.50;;
6209;SDS011;3138;52.550;13.148;2023-02-01T14:24:01;27.73;;;4.50;;
6209;SDS011;3138;52.550;13.148;2023-02-01T14:26:41;22.87;;;3.80;;
6209;SDS011;3138;52.550;13.148;2023-02-01T14:29:15;21.70;;;4.27;;
6209;SDS011;3138;52.550;13.148;2023-02-01T14:31:52;29.20;;;4.40;;
6209;SDS011;3138;52.550;13.148;2023-02-01T14:34:31;16.70;;;3.60;;
6209;SDS011;3138;52.550;13.148;2023-02-01T14:37:08;31.47;;;3.73;;
6209;SDS011;3138;52.550;13.148;2023-02-01T14:39:48;19.13;;;3.53;;
6209;SDS011;3138;52.550;13.148;2023-02-01T14:42:21;28.47;;;3.97;;
6209;SDS011;3138;52.550;13.148;2023-02-01T14:44:51;29.30;;;4.87;;
6209;SDS011;3138;52.550;13.148;2023-02-01T14:53:03;17.33;;;4.20;;
6209;SDS011;3138;52.550;13.148;2023-02-01T14:55:43;10.30;;;3.50;;
6209;SDS011;3138;52.550;13.148;2023-02-01T14:58:16;21.90;;;3.50;;
6209;SDS011;3138;52.550;13.148;2023-02-01T15:00:49;16.07;;;2.20;;
6209;SDS011;3138;52.550;13.148;2023-02-01T15:03:28;7.37;;;2.10;;
6209;SDS011;3138;52.550;13.148;2023-02-01T15:06:04;2.23;;;1.27;;
6209;SDS011;3138;52.550;13.148;2023-02-01T15:08:47;8.97;;;1.60;;
6209;SDS011;3138;52.550;13.148;2023-02-01T15:11:16;5.40;;;1.60;;
6209;SDS011;3138;52.550;13.148;2023-02-01T15:13:47;6.30;;;1.77;;
6209;SDS011;3138;52.550;13.148;2023-02-01T15:16:16;11.63;;;1.60;;
6209;SDS011;3138;52.550;13.148;2023-02-01T15:18:43;6.70;;;1.60;;
6209;SDS011;3138;52.550;13.148;2023-02-01T15:21:14;2.50;;;1.37;;
6209;SDS011;3138;52.550;13.148;2023-02-01T15:23:43;7.70;;;2.07;;
6209;SDS011;3138;52.550;13.148;2023-02-01T15:26:25;4.00;;;1.67;;
6209;SDS011;3138;52.550;13.148;2023-02-01T15:28:53;10.93;;;1.63;;
6209;SDS011;3138;52.550;13.148;2023-02-01T15:31:32;2.73;;;0.93;;
6209;SDS011;3138;52.550;13.148;2023-02-01T15:34:00;3.63;;;1.23;;
6209;SDS011;3138;52.550;13.148;2023-02-01T15:36:27;6.83;;;0.90;;
6209;SDS011;3138;52.550;13.148;2023-02-01T15:39:13;6.53;;;1.53;;
6209;SDS011;3138;52.550;13.148;2023-02-01T15:41:45;8.70;;;1.93;;
6209;SDS011;3138;52.550;13.148;2023-02-01T15:44:16;8.40;;;1.73;;
6209;SDS011;3138;52.550;13.148;2023-02-01T15:46:46;4.90;;;1.67;;
6209;SDS011;3138;52.550;13.148;2023-02-01T15:49:18;5.93;;;1.00;;
6209;SDS011;3138;52.550;13.148;2023-02-01T15:51:49;3.10;;;1.30;;